sensor_id;sensor_type;location;lat;lon;timestamp;P1;durP1;ratioP1;P2;durP2;ratioP2
63189;SDS011;49286;44.460;26.114;2023-02-01T00:01:42;56.45;;;32.33;;
63189;SDS011;49286;44.460;26.114;2023-02-01T00:04:07;55.47;;;35.03;;
63189;SDS011;49286;44.460;26.114;2023-02-01T00:06:33;53.97;;;36.50;;
63189;SDS011;49286;44.460;26.114;2023-02-01T00:08:58;68.68;;;37.75;;
63189;SDS011;49286;44.460;26.114;2023-02-01T00:11:24;53.15;;;34.03;;
63189;SDS011;49286;44.460;26.114;2023-02-01T00:13:50;48.80;;;31.30;;
63189;SDS011;49286;44.460;26.114;2023-02-01T00:16:16;51.53;;;32.03;;
63189;SDS011;49286;44.460;26.114;2023-02-01T00:18:44;60.70;;;33.60;;
63189;SDS011;49286;44.460;26.114;2023-02-01T00:21:11;71.72;;;39.72;;
63189;SDS011;49286;44.460;26.114;2023-02-01T00:23:41;73.00;;;42.25;;
63189;SDS011;49286;44.460;26.114;2023-02-01T00:26:09;61.85;;;41.58;;
63189;SDS011;49286;44.460;26.114;2023-02-01T00:28:39;67.93;;;41.90;;
63189;SDS011;49286;44.460;26.114;2023-02-01T00:31:05;57.47;;;36.47;;
63189;SDS011;49286;44.460;26.114;2023-02-01T00:33:31;55.40;;;32.95;;
63189;SDS011;49286;44.460;26.114;2023-02-01T00:35:57;69.53;;;40.10;;
63189;SDS011;49286;44.460;26.114;2023-02-01T00:38:26;62.50;;;43.00;;
63189;SDS011;49286;44.460;26.114;2023-02-01T00:40:52;80.53;;;42.42;;
63189;SDS011;49286;44.460;26.114;2023-02-01T00:43:18;82.07;;;43.20;;
63189;SDS011;49286;44.460;26.114;2023-02-01T00:45:45;57.85;;;41.20;;
63189;SDS011;49286;44.460;26.114;2023-02-01T00:48:10;71.53;;;42.88;;
63189;SDS011;49286;44.460;26.114;2023-02-01T00:50:40;73.68;;;47.45;;
63189;SDS011;49286;44.460;26.114;2023-02-01T00:53:07;74.60;;;43.25;;
63189;SDS011;49286;44.460;26.114;2023-02-01T00:55:33;78.45;;;40.97;;
63189;SDS011;49286;44.460;26.114;2023-02-01T00:57:59;78.47;;;43.72;;
63189;SDS011;49286;44.460;26.114;2023-02-01T01:00:24;90.85;;;50.10;;
63189;SDS011;49286;44.460;26.114;2023-02-01T01:02:50;76.80;;;47.00;;
63189;SDS011;49286;44.460;26.114;2023-02-01T01:05:16;72.07;;;44.88;;
63189;SDS011;49286;44.460;26.114;2023-02-01T01:07:41;76.15;;;48.22;;
63189;SDS011;49286;44.460;26.114;2023-02-01T01:10:07;73.45;;;46.00;;
63189;SDS011;49286;44.460;26.114;2023-02-01T01:12:32;86.88;;;46.70;;
63189;SDS011;49286;44.460;26.114;2023-02-01T01:14:58;73.10;;;44.50;;
63189;SDS011;49286;44.460;26.114;2023-02-01T01:17:23;67.57;;;43.58;;
63189;SDS011;49286;44.460;26.114;2023-02-01T01:19:49;75.75;;;46.10;;
63189;SDS011;49286;44.460;26.114;2023-02-01T01:22:14;84.25;;;47.15;;
63189;SDS011;49286;44.460;26.114;2023-02-01T01:24:40;67.88;;;39.47;;
63189;SDS011;49286;44.460;26.114;2023-02-01T01:27:05;74.75;;;42.92;;
63189;SDS011;49286;44.460;26.114;2023-02-01T01:29:31;79.15;;;43.60;;
63189;SDS011;49286;44.460;26.114;2023-02-01T01:31:56;76.82;;;43.05;;
63189;SDS011;49286;44.460;26.114;2023-02-01T01:34:22;75.88;;;44.17;;
63189;SDS011;49286;44.460;26.114;2023-02-01T01:36:47;78.95;;;41.63;;
63189;SDS011;49286;44.460;26.114;2023-02-01T01:39:12;76.50;;;42.55;;
63189;SDS011;49286;44.460;26.114;2023-02-01T01:41:38;69.28;;;42.28;;
63189;SDS011;49286;44.460;26.114;2023-02-01T01:44:55;65.72;;;38.50;;
63189;SDS011;49286;44.460;26.114;2023-02-01T01:47:10;62.85;;;38.58;;
63189;SDS011;49286;44.460;26.114;2023-02-01T01:49:36;74.18;;;39.17;;
63189;SDS011;49286;44.460;26.114;2023-02-01T01:52:03;71.03;;;41.53;;
63189;SDS011;49286;44.460;26.114;2023-02-01T01:54:37;63.70;;;41.47;;
63189;SDS011;49286;44.460;26.114;2023-02-01T01:57:09;70.03;;;42.28;;
63189;SDS011;49286;44.460;26.114;2023-02-01T01:59:43;84.78;;;41.15;;
63189;SDS011;49286;44.460;26.114;2023-02-01T02:02:14;68.13;;;40.22;;
63189;SDS011;49286;44.460;26.114;2023-02-01T02:04:41;70.80;;;43.20;;
63189;SDS011;49286;44.460;26.114;2023-02-01T02:07:11;69.30;;;40.58;;
63189;SDS011;49286;44.460;26.114;2023-02-01T02:09:41;67.53;;;41.22;;
63189;SDS011;49286;44.460;26.114;2023-02-01T02:12:08;65.90;;;43.17;;
63189;SDS011;49286;44.460;26.114;2023-02-01T02:14:34;63.03;;;36.75;;
63189;SDS011;49286;44.460;26.114;2023-02-01T02:35:47;60.53;;;37.25;;
63189;SDS011;49286;44.460;26.114;2023-02-01T02:38:29;66.80;;;39.15;;
63189;SDS011;49286;44.460;26.114;2023-02-01T02:43:44;64.38;;;39.95;;
63189;SDS011;49286;44.460;26.114;2023-02-01T02:46:37;69.03;;;39.88;;
63189;SDS011;49286;44.460;26.114;2023-02-01T02:49:29;59.17;;;37.28;;
63189;SDS011;49286;44.460;26.114;2023-02-01T02:52:05;60.00;;;33.97;;
63189;SDS011;49286;44.460;26.114;2023-02-01T02:54:57;58.90;;;37.42;;
63189;SDS011;49286;44.460;26.114;2023-02-01T02:57:28;61.72;;;38.65;;
63189;SDS011;49286;44.460;26.114;2023-02-01T03:00:17;60.63;;;38.75;;
63189;SDS011;49286;44.460;26.114;2023-02-01T03:03:03;55.42;;;35.35;;
63189;SDS011;49286;44.460;26.114;2023-02-01T03:05:48;56.45;;;32.80;;
63189;SDS011;49286;44.460;26.114;2023-02-01T03:08:19;60.83;;;36.20;;
63189;SDS011;49286;44.460;26.114;2023-02-01T03:13:36;67.18;;;36.00;;
63189;SDS011;49286;44.460;26.114;2023-02-01T03:19:35;54.22;;;34.72;;
63189;SDS011;49286;44.460;26.114;2023-02-01T03:24:38;48.25;;;33.40;;
63189;SDS011;49286;44.460;26.114;2023-02-01T03:27:18;57.72;;;34.45;;
63189;SDS011;49286;44.460;26.114;2023-02-01T03:32:51;49.83;;;30.65;;
63189;SDS011;49286;44.460;26.114;2023-02-01T03:35:31;59.95;;;35.78;;
63189;SDS011;49286;44.460;26.114;2023-02-01T03:38:07;50.90;;;29.33;;
63189;SDS011;49286;44.460;26.114;2023-02-01T03:40:39;68.05;;;36.20;;
63189;SDS011;49286;44.460;26.114;2023-02-01T03:43:08;56.10;;;31.98;;
63189;SDS011;49286;44.460;26.114;2023-02-01T03:45:43;60.75;;;34.08;;
63189;SDS011;49286;44.460;26.114;2023-02-01T03:48:10;50.92;;;28.02;;
63189;SDS011;49286;44.460;26.114;2023-02-01T03:50:42;49.65;;;29.35;;
63189;SDS011;49286;44.460;26.114;2023-02-01T03:53:15;52.53;;;28.25;;
63189;SDS011;49286;44.460;26.114;2023-02-01T03:55:44;47.37;;;29.10;;
63189;SDS011;49286;44.460;26.114;2023-02-01T03:58:14;56.20;;;29.40;;
63189;SDS011;49286;44.460;26.114;2023-02-01T04:00:46;39.08;;;24.70;;
63189;SDS011;49286;44.460;26.114;2023-02-01T04:03:18;34.55;;;25.42;;
63189;SDS011;49286;44.460;26.114;2023-02-01T04:05:43;57.65;;;26.27;;
63189;SDS011;49286;44.460;26.114;2023-02-01T04:08:09;41.67;;;23.67;;
63189;SDS011;49286;44.460;26.114;2023-02-01T04:10:34;36.22;;;24.17;;
63189;SDS011;49286;44.460;26.114;2023-02-01T04:13:00;47.72;;;27.92;;
63189;SDS011;49286;44.460;26.114;2023-02-01T04:15:25;46.97;;;25.27;;
63189;SDS011;49286;44.460;26.114;2023-02-01T04:17:51;42.65;;;25.20;;
63189;SDS011;49286;44.460;26.114;2023-02-01T04:20:16;39.85;;;25.33;;
63189;SDS011;49286;44.460;26.114;2023-02-01T04:22:42;41.13;;;25.00;;
63189;SDS011;49286;44.460;26.114;2023-02-01T04:25:08;39.95;;;23.77;;
63189;SDS011;49286;44.460;26.114;2023-02-01T04:27:33;44.83;;;25.25;;
63189;SDS011;49286;44.460;26.114;2023-02-01T04:30:00;38.97;;;23.50;;
63189;SDS011;49286;44.460;26.114;2023-02-01T04:32:25;40.95;;;24.10;;
63189;SDS011;49286;44.460;26.114;2023-02-01T04:34:51;46.58;;;27.58;;
63189;SDS011;49286;44.460;26.114;2023-02-01T04:37:16;39.92;;;23.90;;
63189;SDS011;49286;44.460;26.114;2023-02-01T04:39:42;39.33;;;22.40;;
63189;SDS011;49286;44.460;26.114;2023-02-01T04:42:07;40.88;;;24.35;;
63189;SDS011;49286;44.460;26.114;2023-02-01T04:44:33;44.40;;;23.95;;
63189;SDS011;49286;44.460;26.114;2023-02-01T04:47:01;33.88;;;22.08;;
63189;SDS011;49286;44.460;26.114;2023-02-01T04:49:27;32.80;;;21.23;;
63189;SDS011;49286;44.460;26.114;2023-02-01T04:51:52;34.58;;;20.17;;
63189;SDS011;49286;44.460;26.114;2023-02-01T04:54:18;36.38;;;18.85;;
63189;SDS011;49286;44.460;26.114;2023-02-01T04:56:43;62.92;;;22.58;;
63189;SDS011;49286;44.460;26.114;2023-02-01T04:59:10;36.30;;;22.52;;
63189;SDS011;49286;44.460;26.114;2023-02-01T05:01:36;28.77;;;18.88;;
63189;SDS011;49286;44.460;26.114;2023-02-01T05:04:01;31.98;;;19.65;;
63189;SDS011;49286;44.460;26.114;2023-02-01T05:06:27;33.85;;;17.23;;
63189;SDS011;49286;44.460;26.114;2023-02-01T05:08:52;31.23;;;18.40;;
63189;SDS011;49286;44.460;26.114;2023-02-01T05:11:18;32.53;;;17.33;;
63189;SDS011;49286;44.460;26.114;2023-02-01T05:14:02;30.80;;;18.52;;
63189;SDS011;49286;44.460;26.114;2023-02-01T05:16:27;26.13;;;18.08;;
63189;SDS011;49286;44.460;26.114;2023-02-01T05:18:53;29.88;;;16.60;;
63189;SDS011;49286;44.460;26.114;2023-02-01T05:21:19;28.75;;;16.33;;
63189;SDS011;49286;44.460;26.114;2023-02-01T05:23:45;25.75;;;16.60;;
63189;SDS011;49286;44.460;26.114;2023-02-01T05:26:30;33.38;;;18.05;;
63189;SDS011;49286;44.460;26.114;2023-02-01T05:28:55;28.70;;;15.68;;
63189;SDS011;49286;44.460;26.114;2023-02-01T05:31:21;24.50;;;14.30;;
63189;SDS011;49286;44.460;26.114;2023-02-01T05:33:47;20.30;;;13.73;;
63189;SDS011;49286;44.460;26.114;2023-02-01T05:36:13;30.55;;;14.52;;
63189;SDS011;49286;44.460;26.114;2023-02-01T05:38:38;24.50;;;14.88;;
63189;SDS011;49286;44.460;26.114;2023-02-01T05:41:04;27.35;;;15.50;;
63189;SDS011;49286;44.460;26.114;2023-02-01T05:43:29;32.75;;;18.70;;
63189;SDS011;49286;44.460;26.114;2023-02-01T05:45:55;24.20;;;15.85;;
63189;SDS011;49286;44.460;26.114;2023-02-01T05:48:20;24.85;;;14.80;;
63189;SDS011;49286;44.460;26.114;2023-02-01T05:50:46;30.35;;;13.52;;
63189;SDS011;49286;44.460;26.114;2023-02-01T05:53:11;22.98;;;14.70;;
63189;SDS011;49286;44.460;26.114;2023-02-01T05:55:37;26.67;;;15.85;;
63189;SDS011;49286;44.460;26.114;2023-02-01T05:58:04;18.45;;;12.98;;
63189;SDS011;49286;44.460;26.114;2023-02-01T06:00:30;26.58;;;14.40;;
63189;SDS011;49286;44.460;26.114;2023-02-01T06:02:55;19.98;;;13.45;;
63189;SDS011;49286;44.460;26.114;2023-02-01T06:05:21;22.02;;;13.57;;
63189;SDS011;49286;44.460;26.114;2023-02-01T06:07:47;24.02;;;14.70;;
63189;SDS011;49286;44.460;26.114;2023-02-01T06:10:15;23.33;;;14.52;;
63189;SDS011;49286;44.460;26.114;2023-02-01T06:12:42;25.13;;;14.20;;
63189;SDS011;49286;44.460;26.114;2023-02-01T06:15:07;25.17;;;14.57;;
63189;SDS011;49286;44.460;26.114;2023-02-01T06:17:33;22.45;;;13.43;;
63189;SDS011;49286;44.460;26.114;2023-02-01T06:19:59;21.95;;;14.48;;
63189;SDS011;49286;44.460;26.114;2023-02-01T06:22:24;19.75;;;13.43;;
63189;SDS011;49286;44.460;26.114;2023-02-01T06:24:50;23.08;;;12.85;;
63189;SDS011;49286;44.460;26.114;2023-02-01T06:27:15;26.02;;;15.25;;
63189;SDS011;49286;44.460;26.114;2023-02-01T06:29:41;27.50;;;15.30;;
63189;SDS011;49286;44.460;26.114;2023-02-01T06:32:06;19.80;;;13.10;;
63189;SDS011;49286;44.460;26.114;2023-02-01T06:34:32;17.23;;;12.27;;
63189;SDS011;49286;44.460;26.114;2023-02-01T06:36:57;22.58;;;12.80;;
63189;SDS011;49286;44.460;26.114;2023-02-01T06:39:23;19.52;;;10.45;;
63189;SDS011;49286;44.460;26.114;2023-02-01T06:41:48;15.77;;;11.45;;
63189;SDS011;49286;44.460;26.114;2023-02-01T06:44:15;27.15;;;12.75;;
63189;SDS011;49286;44.460;26.114;2023-02-01T06:46:41;28.83;;;13.70;;
63189;SDS011;49286;44.460;26.114;2023-02-01T06:49:06;20.88;;;11.50;;
63189;SDS011;49286;44.460;26.114;2023-02-01T06:51:32;26.35;;;14.18;;
63189;SDS011;49286;44.460;26.114;2023-02-01T06:53:58;20.58;;;11.93;;
63189;SDS011;49286;44.460;26.114;2023-02-01T06:56:23;19.27;;;13.10;;
63189;SDS011;49286;44.460;26.114;2023-02-01T06:58:49;19.65;;;10.85;;
63189;SDS011;49286;44.460;26.114;2023-02-01T07:01:14;19.13;;;10.93;;
63189;SDS011;49286;44.460;26.114;2023-02-01T07:03:40;15.23;;;10.13;;
63189;SDS011;49286;44.460;26.114;2023-02-01T07:06:07;16.02;;;9.90;;
63189;SDS011;49286;44.460;26.114;2023-02-01T07:08:34;16.20;;;10.77;;
63189;SDS011;49286;44.460;26.114;2023-02-01T07:11:05;18.35;;;12.82;;
63189;SDS011;49286;44.460;26.114;2023-02-01T07:13:32;14.70;;;9.48;;
63189;SDS011;49286;44.460;26.114;2023-02-01T07:15:59;20.92;;;11.88;;
63189;SDS011;49286;44.460;26.114;2023-02-01T07:18:26;17.23;;;10.07;;
63189;SDS011;49286;44.460;26.114;2023-02-01T07:20:53;19.00;;;12.15;;
63189;SDS011;49286;44.460;26.114;2023-02-01T07:23:18;20.80;;;9.23;;
63189;SDS011;49286;44.460;26.114;2023-02-01T07:25:45;21.60;;;11.80;;
63189;SDS011;49286;44.460;26.114;2023-02-01T07:28:10;24.33;;;11.40;;
63189;SDS011;49286;44.460;26.114;2023-02-01T07:30:36;21.70;;;12.23;;
63189;SDS011;49286;44.460;26.114;2023-02-01T07:33:01;14.70;;;10.02;;
63189;SDS011;49286;44.460;26.114;2023-02-01T07:35:27;20.73;;;12.00;;
63189;SDS011;49286;44.460;26.114;2023-02-01T07:37:53;16.65;;;11.13;;
63189;SDS011;49286;44.460;26.114;2023-02-01T07:40:18;21.08;;;13.57;;
63189;SDS011;49286;44.460;26.114;2023-02-01T07:42:49;17.27;;;9.50;;
63189;SDS011;49286;44.460;26.114;2023-02-01T07:45:15;21.40;;;12.40;;
63189;SDS011;49286;44.460;26.114;2023-02-01T07:47:41;18.42;;;10.18;;
63189;SDS011;49286;44.460;26.114;2023-02-01T07:50:06;18.65;;;12.05;;
63189;SDS011;49286;44.460;26.114;2023-02-01T07:52:33;25.83;;;13.07;;
63189;SDS011;49286;44.460;26.114;2023-02-01T07:54:58;21.02;;;13.27;;
63189;SDS011;49286;44.460;26.114;2023-02-01T07:57:24;23.08;;;11.50;;
63189;SDS011;49286;44.460;26.114;2023-02-01T07:59:49;20.33;;;10.52;;
63189;SDS011;49286;44.460;26.114;2023-02-01T08:02:33;13.93;;;9.05;;
63189;SDS011;49286;44.460;26.114;2023-02-01T08:04:59;18.05;;;12.38;;
63189;SDS011;49286;44.460;26.114;2023-02-01T08:07:24;27.83;;;10.75;;
63189;SDS011;49286;44.460;26.114;2023-02-01T08:09:50;19.42;;;10.20;;
63189;SDS011;49286;44.460;26.114;2023-02-01T08:12:15;17.88;;;10.07;;
63189;SDS011;49286;44.460;26.114;2023-02-01T08:14:41;17.73;;;11.82;;
63189;SDS011;49286;44.460;26.114;2023-02-01T08:17:06;21.00;;;11.98;;
63189;SDS011;49286;44.460;26.114;2023-02-01T08:19:32;21.35;;;11.35;;
63189;SDS011;49286;44.460;26.114;2023-02-01T08:21:57;18.30;;;12.10;;
63189;SDS011;49286;44.460;26.114;2023-02-01T08:24:24;18.70;;;11.10;;
63189;SDS011;49286;44.460;26.114;2023-02-01T08:26:50;25.25;;;12.57;;
63189;SDS011;49286;44.460;26.114;2023-02-01T08:29:15;19.17;;;12.35;;
63189;SDS011;49286;44.460;26.114;2023-02-01T08:31:41;21.63;;;13.18;;
63189;SDS011;49286;44.460;26.114;2023-02-01T08:34:07;19.13;;;11.77;;
63189;SDS011;49286;44.460;26.114;2023-02-01T08:36:33;18.05;;;11.23;;
63189;SDS011;49286;44.460;26.114;2023-02-01T08:38:59;23.90;;;12.52;;
63189;SDS011;49286;44.460;26.114;2023-02-01T08:41:26;19.02;;;12.18;;
63189;SDS011;49286;44.460;26.114;2023-02-01T08:43:54;26.92;;;12.75;;
63189;SDS011;49286;44.460;26.114;2023-02-01T08:46:20;21.25;;;12.55;;
63189;SDS011;49286;44.460;26.114;2023-02-01T08:48:47;15.80;;;10.48;;
63189;SDS011;49286;44.460;26.114;2023-02-01T08:51:13;22.33;;;10.38;;
63189;SDS011;49286;44.460;26.114;2023-02-01T08:53:40;18.15;;;11.20;;
63189;SDS011;49286;44.460;26.114;2023-02-01T08:56:06;20.48;;;13.25;;
63189;SDS011;49286;44.460;26.114;2023-02-01T08:58:32;19.50;;;10.50;;
63189;SDS011;49286;44.460;26.114;2023-02-01T09:01:06;18.25;;;10.25;;
63189;SDS011;49286;44.460;26.114;2023-02-01T09:03:33;50.58;;;10.98;;
63189;SDS011;49286;44.460;26.114;2023-02-01T09:06:03;20.10;;;10.85;;
63189;SDS011;49286;44.460;26.114;2023-02-01T09:08:30;20.83;;;11.63;;
63189;SDS011;49286;44.460;26.114;2023-02-01T09:11:04;18.25;;;10.23;;
63189;SDS011;49286;44.460;26.114;2023-02-01T09:13:36;25.00;;;10.63;;
63189;SDS011;49286;44.460;26.114;2023-02-01T09:16:02;21.25;;;12.05;;
63189;SDS011;49286;44.460;26.114;2023-02-01T09:18:29;27.67;;;13.52;;
63189;SDS011;49286;44.460;26.114;2023-02-01T09:20:54;21.33;;;11.75;;
63189;SDS011;49286;44.460;26.114;2023-02-01T09:23:20;21.55;;;12.90;;
63189;SDS011;49286;44.460;26.114;2023-02-01T09:25:45;20.40;;;12.48;;
63189;SDS011;49286;44.460;26.114;2023-02-01T09:28:12;15.57;;;11.13;;
63189;SDS011;49286;44.460;26.114;2023-02-01T09:30:37;17.08;;;10.52;;
63189;SDS011;49286;44.460;26.114;2023-02-01T09:33:03;18.88;;;12.02;;
63189;SDS011;49286;44.460;26.114;2023-02-01T09:35:29;14.50;;;10.02;;
63189;SDS011;49286;44.460;26.114;2023-02-01T09:37:55;16.48;;;9.48;;
63189;SDS011;49286;44.460;26.114;2023-02-01T09:40:20;13.82;;;10.52;;
63189;SDS011;49286;44.460;26.114;2023-02-01T09:48:02;20.55;;;12.45;;
63189;SDS011;49286;44.460;26.114;2023-02-01T09:50:39;17.20;;;9.35;;
63189;SDS011;49286;44.460;26.114;2023-02-01T09:53:15;20.43;;;9.77;;
63189;SDS011;49286;44.460;26.114;2023-02-01T09:55:50;18.75;;;10.20;;
63189;SDS011;49286;44.460;26.114;2023-02-01T09:58:22;16.20;;;8.60;;
63189;SDS011;49286;44.460;26.114;2023-02-01T10:01:03;15.48;;;9.55;;
63189;SDS011;49286;44.460;26.114;2023-02-01T10:03:31;16.45;;;8.85;;
63189;SDS011;49286;44.460;26.114;2023-02-01T10:08:38;16.95;;;10.45;;
63189;SDS011;49286;44.460;26.114;2023-02-01T10:22:42;15.48;;;9.88;;
63189;SDS011;49286;44.460;26.114;2023-02-01T10:27:40;20.65;;;11.70;;
63189;SDS011;49286;44.460;26.114;2023-02-01T10:30:29;12.90;;;9.13;;
63189;SDS011;49286;44.460;26.114;2023-02-01T10:32:56;15.15;;;9.20;;
63189;SDS011;49286;44.460;26.114;2023-02-01T10:35:31;15.35;;;9.52;;
63189;SDS011;49286;44.460;26.114;2023-02-01T10:38:01;15.30;;;9.40;;
63189;SDS011;49286;44.460;26.114;2023-02-01T10:40:30;11.82;;;8.15;;
63189;SDS011;49286;44.460;26.114;2023-02-01T10:43:00;12.98;;;8.40;;
63189;SDS011;49286;44.460;26.114;2023-02-01T10:45:28;13.15;;;8.45;;
63189;SDS011;49286;44.460;26.114;2023-02-01T10:47:56;11.73;;;8.07;;
63189;SDS011;49286;44.460;26.114;2023-02-01T10:50:33;22.55;;;8.93;;
63189;SDS011;49286;44.460;26.114;2023-02-01T10:53:04;13.07;;;7.20;;
63189;SDS011;49286;44.460;26.114;2023-02-01T10:58:30;15.73;;;10.07;;
63189;SDS011;49286;44.460;26.114;2023-02-01T11:01:04;14.18;;;8.43;;
63189;SDS011;49286;44.460;26.114;2023-02-01T11:03:52;19.13;;;9.75;;
63189;SDS011;49286;44.460;26.114;2023-02-01T11:06:28;16.17;;;9.27;;
63189;SDS011;49286;44.460;26.114;2023-02-01T11:11:30;14.73;;;9.15;;
63189;SDS011;49286;44.460;26.114;2023-02-01T11:14:00;10.93;;;6.63;;
63189;SDS011;49286;44.460;26.114;2023-02-01T11:16:39;19.05;;;10.73;;
63189;SDS011;49286;44.460;26.114;2023-02-01T11:19:05;15.77;;;10.10;;
63189;SDS011;49286;44.460;26.114;2023-02-01T11:21:32;13.05;;;8.32;;
63189;SDS011;49286;44.460;26.114;2023-02-01T11:24:03;12.13;;;7.90;;
63189;SDS011;49286;44.460;26.114;2023-02-01T11:26:30;14.75;;;7.53;;
63189;SDS011;49286;44.460;26.114;2023-02-01T11:29:01;17.30;;;9.23;;
63189;SDS011;49286;44.460;26.114;2023-02-01T11:31:29;16.75;;;8.20;;
63189;SDS011;49286;44.460;26.114;2023-02-01T11:33:58;16.30;;;9.07;;
63189;SDS011;49286;44.460;26.114;2023-02-01T11:36:31;17.52;;;7.63;;
63189;SDS011;49286;44.460;26.114;2023-02-01T11:41:59;13.05;;;9.60;;
63189;SDS011;49286;44.460;26.114;2023-02-01T11:46:55;12.82;;;9.15;;
63189;SDS011;49286;44.460;26.114;2023-02-01T11:49:33;15.85;;;8.70;;
63189;SDS011;49286;44.460;26.114;2023-02-01T12:02:54;9.95;;;6.60;;
63189;SDS011;49286;44.460;26.114;2023-02-01T12:27:27;9.20;;;7.15;;
63189;SDS011;49286;44.460;26.114;2023-02-01T12:30:10;12.45;;;6.68;;
63189;SDS011;49286;44.460;26.114;2023-02-01T12:41:17;10.02;;;6.25;;
63189;SDS011;49286;44.460;26.114;2023-02-01T12:44:02;16.85;;;7.30;;
63189;SDS011;49286;44.460;26.114;2023-02-01T12:46:43;10.48;;;8.02;;
63189;SDS011;49286;44.460;26.114;2023-02-01T12:49:19;12.50;;;7.30;;
63189;SDS011;49286;44.460;26.114;2023-02-01T12:51:54;9.00;;;6.65;;
63189;SDS011;49286;44.460;26.114;2023-02-01T12:57:03;10.23;;;6.20;;
63189;SDS011;49286;44.460;26.114;2023-02-01T12:59:54;18.40;;;7.47;;
63189;SDS011;49286;44.460;26.114;2023-02-01T13:05:44;11.57;;;7.72;;
63189;SDS011;49286;44.460;26.114;2023-02-01T13:08:25;14.80;;;8.38;;
63189;SDS011;49286;44.460;26.114;2023-02-01T13:11:51;12.93;;;7.93;;
63189;SDS011;49286;44.460;26.114;2023-02-01T13:16:39;12.23;;;7.53;;
63189;SDS011;49286;44.460;26.114;2023-02-01T13:19:18;13.20;;;7.80;;
63189;SDS011;49286;44.460;26.114;2023-02-01T13:21:50;13.75;;;7.95;;
63189;SDS011;49286;44.460;26.114;2023-02-01T13:24:26;11.13;;;6.97;;
63189;SDS011;49286;44.460;26.114;2023-02-01T13:26:59;13.70;;;6.80;;
63189;SDS011;49286;44.460;26.114;2023-02-01T13:29:26;11.98;;;7.25;;
63189;SDS011;49286;44.460;26.114;2023-02-01T13:42:53;10.77;;;6.97;;
63189;SDS011;49286;44.460;26.114;2023-02-01T13:45:23;15.05;;;8.52;;
63189;SDS011;49286;44.460;26.114;2023-02-01T13:47:53;10.07;;;5.95;;
63189;SDS011;49286;44.460;26.114;2023-02-01T13:52:57;8.18;;;5.25;;
63189;SDS011;49286;44.460;26.114;2023-02-01T13:55:46;11.57;;;6.35;;
63189;SDS011;49286;44.460;26.114;2023-02-01T13:58:15;12.73;;;8.23;;
63189;SDS011;49286;44.460;26.114;2023-02-01T14:00:44;11.95;;;6.78;;
63189;SDS011;49286;44.460;26.114;2023-02-01T14:08:23;10.80;;;7.07;;
63189;SDS011;49286;44.460;26.114;2023-02-01T14:11:01;14.25;;;6.00;;
63189;SDS011;49286;44.460;26.114;2023-02-01T14:27:07;9.55;;;5.43;;
63189;SDS011;49286;44.460;26.114;2023-02-01T14:58:37;10.50;;;6.28;;
63189;SDS011;49286;44.460;26.114;2023-02-01T15:09:04;11.25;;;7.13;;
63189;SDS011;49286;44.460;26.114;2023-02-01T15:16:47;20.20;;;9.57;;
63189;SDS011;49286;44.460;26.114;2023-02-01T15:19:18;13.82;;;8.50;;
63189;SDS011;49286;44.460;26.114;2023-02-01T15:21:47;13.57;;;7.13;;
63189;SDS011;49286;44.460;26.114;2023-02-01T15:24:18;14.60;;;8.10;;
63189;SDS011;49286;44.460;26.114;2023-02-01T15:26:44;11.93;;;8.23;;
63189;SDS011;49286;44.460;26.114;2023-02-01T15:29:11;12.75;;;7.97;;
63189;SDS011;49286;44.460;26.114;2023-02-01T15:31:39;14.23;;;7.70;;
63189;SDS011;49286;44.460;26.114;2023-02-01T15:34:05;13.43;;;8.73;;
63189;SDS011;49286;44.460;26.114;2023-02-01T15:36:31;14.52;;;7.50;;
63189;SDS011;49286;44.460;26.114;2023-02-01T15:42:24;12.27;;;7.10;;
63189;SDS011;49286;44.460;26.114;2023-02-01T15:47:17;8.45;;;5.60;;
63189;SDS011;49286;44.460;26.114;2023-02-01T15:49:49;12.48;;;6.80;;
63189;SDS011;49286;44.460;26.114;2023-02-01T15:55:02;13.23;;;6.65;;
63189;SDS011;49286;44.460;26.114;2023-02-01T15:57:32;14.88;;;8.23;;
63189;SDS011;49286;44.460;26.114;2023-02-01T16:00:06;11.32;;;7.03;;
63189;SDS011;49286;44.460;26.114;2023-02-01T16:02:53;10.35;;;6.85;;
63189;SDS011;49286;44.460;26.114;2023-02-01T16:05:33;15.82;;;7.40;;
63189;SDS011;49286;44.460;26.114;2023-02-01T16:08:20;12.35;;;7.45;;
63189;SDS011;49286;44.460;26.114;2023-02-01T16:10:48;11.70;;;6.85;;
63189;SDS011;49286;44.460;26.114;2023-02-01T16:13:16;13.30;;;8.50;;
63189;SDS011;49286;44.460;26.114;2023-02-01T16:15:43;11.50;;;7.95;;
63189;SDS011;49286;44.460;26.114;2023-02-01T16:18:09;13.93;;;8.05;;
63189;SDS011;49286;44.460;26.114;2023-02-01T16:20:36;11.10;;;6.95;;
63189;SDS011;49286;44.460;26.114;2023-02-01T16:23:03;11.32;;;7.00;;
63189;SDS011;49286;44.460;26.114;2023-02-01T16:25:29;17.88;;;7.63;;
63189;SDS011;49286;44.460;26.114;2023-02-01T16:27:54;13.75;;;7.82;;
63189;SDS011;49286;44.460;26.114;2023-02-01T16:30:20;15.30;;;8.23;;
63189;SDS011;49286;44.460;26.114;2023-02-01T16:32:58;13.30;;;8.15;;
63189;SDS011;49286;44.460;26.114;2023-02-01T16:35:29;11.77;;;6.53;;
63189;SDS011;49286;44.460;26.114;2023-02-01T16:38:01;10.48;;;7.28;;
63189;SDS011;49286;44.460;26.114;2023-02-01T16:40:28;11.90;;;8.07;;
63189;SDS011;49286;44.460;26.114;2023-02-01T16:42:53;10.57;;;7.57;;
63189;SDS011;49286;44.460;26.114;2023-02-01T16:45:22;13.23;;;7.95;;
63189;SDS011;49286;44.460;26.114;2023-02-01T16:47:49;11.70;;;7.40;;
63189;SDS011;49286;44.460;26.114;2023-02-01T16:50:25;15.88;;;7.10;;
63189;SDS011;49286;44.460;26.114;2023-02-01T16:52:51;16.85;;;7.07;;
63189;SDS011;49286;44.460;26.114;2023-02-01T16:55:18;12.60;;;7.72;;
63189;SDS011;49286;44.460;26.114;2023-02-01T16:57:46;13.68;;;7.15;;
63189;SDS011;49286;44.460;26.114;2023-02-01T17:00:13;9.82;;;5.72;;
63189;SDS011;49286;44.460;26.114;2023-02-01T17:02:40;11.20;;;6.90;;
63189;SDS011;49286;44.460;26.114;2023-02-01T17:05:07;12.35;;;7.00;;
63189;SDS011;49286;44.460;26.114;2023-02-01T17:07:33;18.35;;;9.70;;
63189;SDS011;49286;44.460;26.114;2023-02-01T17:10:00;10.25;;;6.68;;
63189;SDS011;49286;44.460;26.114;2023-02-01T17:12:27;10.20;;;6.18;;
63189;SDS011;49286;44.460;26.114;2023-02-01T17:14:55;9.07;;;5.18;;
63189;SDS011;49286;44.460;26.114;2023-02-01T17:17:22;13.90;;;7.32;;
63189;SDS011;49286;44.460;26.114;2023-02-01T17:19:50;11.63;;;7.72;;
63189;SDS011;49286;44.460;26.114;2023-02-01T17:22:18;10.63;;;6.72;;
63189;SDS011;49286;44.460;26.114;2023-02-01T17:24:45;9.95;;;6.85;;
63189;SDS011;49286;44.460;26.114;2023-02-01T17:27:11;16.45;;;7.13;;
63189;SDS011;49286;44.460;26.114;2023-02-01T17:29:36;13.05;;;8.15;;
63189;SDS011;49286;44.460;26.114;2023-02-01T17:32:02;10.88;;;7.30;;
63189;SDS011;49286;44.460;26.114;2023-02-01T17:34:29;13.30;;;7.68;;
63189;SDS011;49286;44.460;26.114;2023-02-01T17:36:55;13.50;;;8.10;;
63189;SDS011;49286;44.460;26.114;2023-02-01T17:39:20;12.65;;;9.18;;
63189;SDS011;49286;44.460;26.114;2023-02-01T17:42:05;15.13;;;6.97;;
63189;SDS011;49286;44.460;26.114;2023-02-01T17:44:35;12.73;;;8.43;;